Time;durP1;ratioP1;P1;durP2;ratioP2;P2;SDS_P1;SDS_P2;PMS_P1;PMS_P2;Temp;Humidity;BMP_temperature;BMP_pressure;BME280_temperature;BME280_humidity;BME280_pressure;Samples;Min_cycle;Max_cycle;Signal;HPM_P1;HPM_P2
2021/12/30 00:00:38;;;;;;;;;;;10.00;99.90;;;;;;5042211;28;19949;-76
2021/12/30 00:03:04;;;;;;;;;;;10.00;99.90;;;;;;5024557;28;20300;-76
2021/12/30 00:05:30;;;;;;;;;;;10.00;99.90;;;;;;5042004;28;20001;-77
2021/12/30 00:07:55;;;;;;;;;;;9.90;99.90;;;;;;5025885;28;19915;-77
2021/12/30 00:10:21;;;;;;;;;;;10.00;99.90;;;;;;5040165;28;19917;-77
2021/12/30 00:12:47;;;;;;;;;;;10.00;99.90;;;;;;5043849;28;19917;-76
2021/12/30 00:15:13;;;;;;;;;;;10.00;99.90;;;;;;5040703;28;19924;-77
2021/12/30 00:17:39;;;;;;;;;;;10.10;99.90;;;;;;5042610;28;20391;-76
2021/12/30 00:20:05;;;;;;;;;;;10.10;99.90;;;;;;5041999;28;19917;-76
2021/12/30 00:22:31;;;;;;;;;;;10.10;99.90;;;;;;5041783;28;19916;-76
2021/12/30 00:24:57;;;;;;;;;;;10.10;99.90;;;;;;5042944;28;19917;-77
2021/12/30 00:27:22;;;;;;;;;;;10.20;99.90;;;;;;5043536;28;19939;-76
2021/12/30 00:29:48;;;;;;;;;;;10.10;99.90;;;;;;5041960;28;20003;-76
2021/12/30 00:32:13;;;;;;;;;;;10.20;99.90;;;;;;5024593;28;19913;-76
2021/12/30 00:34:39;;;;;;;;;;;10.20;99.90;;;;;;5042858;28;19913;-75
2021/12/30 00:37:04;;;;;;;;;;;10.20;99.90;;;;;;5042762;28;20368;-76
2021/12/30 00:39:30;;;;;;;;;;;10.10;99.90;;;;;;5042579;28;20316;-75
2021/12/30 00:41:55;;;;;;;;;;;10.20;99.90;;;;;;5044155;28;19942;-75
2021/12/30 00:44:21;;;;;;;;;;;10.20;99.90;;;;;;5040382;28;19927;-75
2021/12/30 00:46:46;;;;;;;;;;;10.20;99.90;;;;;;5022260;28;19939;-75
2021/12/30 00:49:13;;;;;;;;;;;10.20;99.90;;;;;;5024876;28;20389;-75
2021/12/30 00:51:39;;;;;;;;;;;10.30;99.90;;;;;;5023789;28;19916;-75
2021/12/30 00:54:04;;;;;;;;;;;10.30;99.90;;;;;;5043479;28;20042;-75
2021/12/30 00:56:30;;;;;;;;;;;10.30;99.90;;;;;;5043805;28;19958;-75
2021/12/30 00:58:55;;;;;;;;;;;10.30;99.90;;;;;;5022311;28;19916;-76
2021/12/30 01:01:21;;;;;;;;;;;10.30;99.90;;;;;;5039039;28;19921;-75
2021/12/30 01:03:47;;;;;;;;;;;10.30;99.90;;;;;;5035465;28;20505;-76
2021/12/30 01:06:12;;;;;;;;;;;10.40;99.90;;;;;;5008225;28;19917;-76
2021/12/30 01:08:38;;;;;;;;;;;10.40;99.90;;;;;;5023382;28;19994;-76
2021/12/30 01:11:07;;;;;;;;;;;10.40;99.90;;;;;;5041895;28;19923;-76
2021/12/30 01:13:38;;;;;;;;;;;10.40;99.90;;;;;;5040771;28;20003;-76
2021/12/30 01:16:05;;;;;;;;;;;10.40;99.90;;;;;;5041310;28;20477;-76
2021/12/30 01:18:41;;;;;;;;;;;10.40;99.90;;;;;;5040539;28;19996;-76
2021/12/30 01:21:09;;;;;;;;;;;10.40;99.90;;;;;;5040502;28;19955;-76
2021/12/30 01:23:35;;;;;;;;;;;10.50;99.90;;;;;;5023303;28;19916;-76
2021/12/30 01:26:01;;;;;;;;;;;10.50;99.90;;;;;;5008287;28;19939;-77
2021/12/30 01:28:27;;;;;;;;;;;10.60;99.90;;;;;;5023850;28;19924;-77
2021/12/30 01:30:53;;;;;;;;;;;10.60;99.90;;;;;;5042191;28;19935;-76
2021/12/30 01:33:19;;;;;;;;;;;10.60;99.90;;;;;;5021437;28;19924;-77
2021/12/30 01:35:44;;;;;;;;;;;10.60;99.90;;;;;;5024661;28;19908;-77
2021/12/30 01:38:12;;;;;;;;;;;10.60;99.90;;;;;;5027045;28;19917;-77
2021/12/30 01:40:40;;;;;;;;;;;10.60;99.90;;;;;;5041916;28;20429;-76
2021/12/30 01:43:07;;;;;;;;;;;10.60;99.90;;;;;;5022900;28;19917;-77
2021/12/30 01:45:32;;;;;;;;;;;10.60;99.90;;;;;;5040866;28;19999;-77
2021/12/30 01:47:58;;;;;;;;;;;10.50;99.90;;;;;;5039893;28;20288;-77
2021/12/30 01:50:24;;;;;;;;;;;10.50;99.90;;;;;;5041778;28;19916;-77
2021/12/30 01:52:49;;;;;;;;;;;10.50;99.90;;;;;;5021186;28;20424;-77
2021/12/30 01:55:16;;;;;;;;;;;10.50;99.90;;;;;;5021624;28;19917;-77
2021/12/30 01:57:42;;;;;;;;;;;10.50;99.90;;;;;;5025312;28;20003;-78
2021/12/30 02:00:10;;;;;;;;;;;10.60;99.90;;;;;;5043206;28;20003;-77
2021/12/30 02:02:36;;;;;;;;;;;10.60;99.90;;;;;;5044049;28;20441;-78
2021/12/30 02:05:01;;;;;;;;;;;10.50;99.90;;;;;;5037432;28;19921;-78
2021/12/30 02:07:27;;;;;;;;;;;10.50;99.90;;;;;;5040621;28;19959;-78
2021/12/30 02:09:59;;;;;;;;;;;10.50;99.90;;;;;;5041750;28;19924;-78
2021/12/30 02:12:25;;;;;;;;;;;10.50;99.90;;;;;;5021508;28;20289;-78
2021/12/30 02:14:51;;;;;;;;;;;10.40;99.90;;;;;;5024316;28;19917;-78
2021/12/30 02:17:16;;;;;;;;;;;10.40;99.90;;;;;;5021452;28;19917;-77
2021/12/30 02:19:42;;;;;;;;;;;10.30;99.90;;;;;;5040680;28;19963;-78
2021/12/30 02:22:07;;;;;;;;;;;10.30;99.90;;;;;;5022326;28;19913;-77
2021/12/30 02:24:34;;;;;;;;;;;10.30;99.90;;;;;;5022962;28;19921;-78
2021/12/30 02:27:00;;;;;;;;;;;10.20;99.90;;;;;;5021122;28;19916;-78
2021/12/30 02:29:26;;;;;;;;;;;10.20;99.90;;;;;;5042536;28;20269;-78
2021/12/30 02:31:51;;;;;;;;;;;10.30;99.90;;;;;;5037814;28;19995;-78
2021/12/30 02:34:18;;;;;;;;;;;10.30;99.90;;;;;;5038673;28;19917;-78
2021/12/30 02:36:46;;;;;;;;;;;10.20;99.90;;;;;;5007478;28;19921;-78
2021/12/30 02:39:13;;;;;;;;;;;10.20;99.90;;;;;;5025166;28;19913;-78
2021/12/30 02:41:39;;;;;;;;;;;10.20;99.90;;;;;;5025498;28;20027;-78
2021/12/30 02:44:06;;;;;;;;;;;10.20;99.90;;;;;;5041671;28;20012;-78
2021/12/30 02:46:34;;;;;;;;;;;10.20;99.90;;;;;;5040632;28;19924;-78
2021/12/30 02:48:59;;;;;;;;;;;10.20;99.90;;;;;;5022675;28;20388;-78
2021/12/30 02:51:26;;;;;;;;;;;10.10;99.90;;;;;;5023895;28;19936;-78
2021/12/30 02:53:52;;;;;;;;;;;10.10;99.90;;;;;;5024624;28;20400;-78
2021/12/30 02:56:18;;;;;;;;;;;10.10;99.90;;;;;;5045000;28;19917;-78
2021/12/30 02:58:44;;;;;;;;;;;10.20;99.90;;;;;;5044032;28;19917;-78
2021/12/30 03:01:12;;;;;;;;;;;10.20;99.90;;;;;;5043633;28;19924;-78
2021/12/30 03:03:38;;;;;;;;;;;10.20;99.90;;;;;;5025528;28;19920;-77
2021/12/30 03:06:05;;;;;;;;;;;10.20;99.90;;;;;;5025447;28;19920;-78
2021/12/30 03:08:31;;;;;;;;;;;10.20;99.90;;;;;;5045276;28;19986;-77
2021/12/30 03:10:57;;;;;;;;;;;10.20;99.90;;;;;;5026825;28;20323;-77
2021/12/30 03:13:30;;;;;;;;;;;10.20;99.90;;;;;;5023976;28;19917;-77
2021/12/30 03:16:15;;;;;;;;;;;10.20;99.90;;;;;;5046212;28;19913;-76
2021/12/30 03:18:42;;;;;;;;;;;10.20;99.90;;;;;;5046207;28;20394;-77
2021/12/30 03:21:08;;;;;;;;;;;10.10;99.90;;;;;;5051738;28;20677;-77
2021/12/30 03:23:34;;;;;;;;;;;10.10;99.90;;;;;;5041435;28;19939;-77
2021/12/30 03:26:00;;;;;;;;;;;10.20;99.90;;;;;;5043406;28;20363;-77
2021/12/30 03:28:25;;;;;;;;;;;10.20;99.90;;;;;;5053124;28;19913;-77
2021/12/30 03:30:51;;;;;;;;;;;10.20;99.90;;;;;;5048550;28;19913;-77
2021/12/30 03:33:17;;;;;;;;;;;10.20;99.90;;;;;;5033814;28;19909;-77
2021/12/30 03:35:43;;;;;;;;;;;10.20;99.90;;;;;;5015658;28;19917;-77
2021/12/30 03:38:08;;;;;;;;;;;10.20;99.90;;;;;;5049255;28;19959;-77
2021/12/30 03:40:34;;;;;;;;;;;10.20;99.90;;;;;;5044721;28;19959;-77
2021/12/30 03:43:00;;;;;;;;;;;10.20;99.90;;;;;;5035305;28;20004;-76
2021/12/30 03:45:26;;;;;;;;;;;10.20;99.90;;;;;;5053162;28;19913;-77
2021/12/30 03:47:52;;;;;;;;;;;10.20;99.90;;;;;;5018332;28;20260;-77
2021/12/30 03:50:23;;;;;;;;;;;10.20;99.90;;;;;;5031000;28;19967;-76
2021/12/30 03:52:53;;;;;;;;;;;10.20;99.90;;;;;;5037090;28;19971;-77
2021/12/30 03:55:19;;;;;;;;;;;10.20;99.90;;;;;;5016223;28;19924;-77
2021/12/30 03:57:45;;;;;;;;;;;10.20;99.90;;;;;;5031664;28;19912;-77
2021/12/30 04:00:12;;;;;;;;;;;10.20;99.90;;;;;;5052803;28;19908;-76
2021/12/30 04:02:38;;;;;;;;;;;10.20;99.90;;;;;;5043776;28;20012;-77
2021/12/30 04:05:04;;;;;;;;;;;10.20;99.90;;;;;;5042916;28;20014;-77
2021/12/30 04:07:29;;;;;;;;;;;10.20;99.90;;;;;;5027151;28;20368;-76
2021/12/30 04:09:55;;;;;;;;;;;10.30;99.90;;;;;;5044058;28;19970;-76
2021/12/30 04:12:20;;;;;;;;;;;10.30;99.90;;;;;;5022859;28;19921;-77
2021/12/30 04:14:46;;;;;;;;;;;10.20;99.90;;;;;;5044912;28;20003;-77
2021/12/30 04:17:11;;;;;;;;;;;10.20;99.90;;;;;;5042633;28;19970;-77
2021/12/30 04:19:37;;;;;;;;;;;10.10;99.90;;;;;;5026068;28;19916;-77
2021/12/30 04:22:02;;;;;;;;;;;10.00;99.90;;;;;;5008635;28;19967;-77
2021/12/30 04:24:28;;;;;;;;;;;10.00;99.90;;;;;;5023005;28;20445;-76
2021/12/30 04:26:54;;;;;;;;;;;10.10;99.90;;;;;;5042744;28;20368;-77
2021/12/30 04:29:21;;;;;;;;;;;10.10;99.90;;;;;;5043394;28;19936;-77
2021/12/30 04:31:47;;;;;;;;;;;10.10;99.90;;;;;;5040240;28;20276;-77
2021/12/30 04:34:13;;;;;;;;;;;10.10;99.90;;;;;;5024501;28;19913;-77
2021/12/30 04:36:38;;;;;;;;;;;10.10;99.90;;;;;;5045641;28;20282;-77
2021/12/30 04:39:05;;;;;;;;;;;10.00;99.90;;;;;;5023176;28;20039;-78
2021/12/30 04:41:30;;;;;;;;;;;10.10;99.90;;;;;;5025073;28;19913;-76
2021/12/30 04:43:56;;;;;;;;;;;10.10;99.90;;;;;;5040101;28;20407;-76
2021/12/30 04:46:21;;;;;;;;;;;10.10;99.90;;;;;;5026342;28;19932;-77
2021/12/30 04:48:47;;;;;;;;;;;10.10;99.90;;;;;;5044552;28;19913;-76
2021/12/30 04:51:13;;;;;;;;;;;10.10;99.90;;;;;;5043600;28;20336;-77
2021/12/30 04:53:39;;;;;;;;;;;10.10;99.90;;;;;;5024333;28;19920;-77
2021/12/30 04:56:04;;;;;;;;;;;10.10;99.90;;;;;;5040005;28;19939;-77
2021/12/30 04:58:30;;;;;;;;;;;10.10;99.90;;;;;;5040559;28;20384;-76
2021/12/30 05:00:55;;;;;;;;;;;10.10;99.90;;;;;;5042445;28;19966;-77
2021/12/30 05:03:22;;;;;;;;;;;10.10;99.90;;;;;;5022014;28;20433;-77
2021/12/30 05:05:51;;;;;;;;;;;10.20;99.90;;;;;;5042459;28;19912;-77
2021/12/30 05:08:18;;;;;;;;;;;10.20;99.90;;;;;;5040723;28;19909;-77
2021/12/30 05:10:44;;;;;;;;;;;10.20;99.90;;;;;;5022351;28;19913;-77
2021/12/30 05:13:10;;;;;;;;;;;10.20;99.90;;;;;;5044062;28;19963;-77
2021/12/30 05:15:36;;;;;;;;;;;10.20;99.90;;;;;;5041357;28;19912;-78
2021/12/30 05:18:02;;;;;;;;;;;10.10;99.90;;;;;;5025091;28;19975;-78
2021/12/30 05:20:28;;;;;;;;;;;10.20;99.90;;;;;;5028013;28;19939;-77
2021/12/30 05:22:54;;;;;;;;;;;10.20;99.90;;;;;;5025183;28;19913;-77
2021/12/30 05:25:19;;;;;;;;;;;10.20;99.90;;;;;;5041243;28;19912;-77
2021/12/30 05:27:45;;;;;;;;;;;10.20;99.90;;;;;;5025647;28;19921;-77
2021/12/30 05:30:12;;;;;;;;;;;10.20;99.90;;;;;;5040666;28;19920;-78
2021/12/30 05:32:37;;;;;;;;;;;10.30;99.90;;;;;;5045147;28;19919;-77
2021/12/30 05:35:04;;;;;;;;;;;10.30;99.90;;;;;;5021532;28;19928;-77
2021/12/30 05:37:29;;;;;;;;;;;10.30;99.90;;;;;;5040882;28;19913;-77
2021/12/30 05:39:55;;;;;;;;;;;10.40;99.90;;;;;;5042266;28;19961;-77
2021/12/30 05:42:22;;;;;;;;;;;10.40;99.90;;;;;;5025474;28;19917;-77
2021/12/30 05:44:50;;;;;;;;;;;10.40;99.90;;;;;;5042042;28;20364;-77
2021/12/30 05:47:15;;;;;;;;;;;10.40;99.90;;;;;;5022130;28;19998;-77
2021/12/30 05:49:41;;;;;;;;;;;10.40;99.90;;;;;;5040681;28;20372;-77
2021/12/30 05:52:06;;;;;;;;;;;10.40;99.90;;;;;;5023427;28;19919;-76
2021/12/30 05:54:32;;;;;;;;;;;10.40;99.90;;;;;;5021343;28;20288;-77
2021/12/30 05:56:57;;;;;;;;;;;10.40;99.90;;;;;;5023083;28;20291;-77
2021/12/30 05:59:23;;;;;;;;;;;10.50;99.90;;;;;;5023049;28;19921;-76
2021/12/30 06:01:48;;;;;;;;;;;10.50;99.90;;;;;;5020567;28;20300;-76
2021/12/30 06:04:14;;;;;;;;;;;10.50;99.90;;;;;;5023319;28;19924;-76
2021/12/30 06:06:39;;;;;;;;;;;10.50;99.90;;;;;;5022439;28;20434;-76
2021/12/30 06:09:05;;;;;;;;;;;10.50;99.90;;;;;;5022753;28;19916;-76
2021/12/30 06:11:30;;;;;;;;;;;10.50;99.90;;;;;;5040651;28;19917;-76
2021/12/30 06:13:56;;;;;;;;;;;10.60;99.90;;;;;;5043951;28;20391;-77
2021/12/30 06:16:21;;;;;;;;;;;10.50;99.90;;;;;;5021140;28;20368;-76
2021/12/30 06:18:47;;;;;;;;;;;10.60;99.90;;;;;;5023143;28;19920;-77
2021/12/30 06:21:12;;;;;;;;;;;10.60;99.90;;;;;;5038121;28;19917;-77
2021/12/30 06:23:38;;;;;;;;;;;10.60;99.90;;;;;;5020526;28;19943;-77
2021/12/30 06:26:03;;;;;;;;;;;10.60;99.90;;;;;;5039379;28;19916;-77
2021/12/30 06:28:29;;;;;;;;;;;10.60;99.90;;;;;;5021913;28;20004;-77
2021/12/30 06:30:54;;;;;;;;;;;10.50;99.90;;;;;;5047316;28;19996;-77
2021/12/30 06:33:20;;;;;;;;;;;10.50;99.90;;;;;;5042959;28;19913;-78
2021/12/30 06:35:45;;;;;;;;;;;10.60;99.90;;;;;;5024743;28;20369;-77
2021/12/30 06:38:11;;;;;;;;;;;10.60;99.90;;;;;;5044662;28;19994;-77
2021/12/30 06:40:37;;;;;;;;;;;10.70;99.90;;;;;;5043327;28;19951;-77
2021/12/30 06:43:02;;;;;;;;;;;10.60;99.90;;;;;;5045313;28;19940;-77
2021/12/30 06:45:28;;;;;;;;;;;10.60;99.90;;;;;;5046222;28;19965;-77
2021/12/30 06:47:53;;;;;;;;;;;10.60;99.90;;;;;;5030318;28;19916;-77
2021/12/30 06:50:22;;;;;;;;;;;10.70;99.90;;;;;;5010105;28;19962;-77
2021/12/30 06:52:48;;;;;;;;;;;10.70;99.90;;;;;;5024992;28;19960;-77
2021/12/30 06:55:14;;;;;;;;;;;10.60;99.90;;;;;;5025741;28;19947;-77
2021/12/30 06:57:40;;;;;;;;;;;10.70;99.90;;;;;;5025996;28;19920;-76
2021/12/30 07:00:07;;;;;;;;;;;10.60;99.90;;;;;;5026646;28;19921;-77
2021/12/30 07:02:33;;;;;;;;;;;10.60;99.90;;;;;;5047141;28;19917;-77
2021/12/30 07:04:59;;;;;;;;;;;10.70;99.90;;;;;;5027219;28;20379;-77
2021/12/30 07:07:24;;;;;;;;;;;10.60;99.90;;;;;;5029129;28;19917;-77
2021/12/30 07:09:50;;;;;;;;;;;10.60;99.90;;;;;;5044000;28;19913;-77
2021/12/30 07:12:15;;;;;;;;;;;10.60;99.90;;;;;;5045172;28;19920;-77
2021/12/30 07:14:41;;;;;;;;;;;10.60;99.90;;;;;;5025546;28;20451;-77
2021/12/30 07:17:06;;;;;;;;;;;10.60;99.90;;;;;;5044210;28;19912;-77
2021/12/30 07:19:32;;;;;;;;;;;10.60;99.90;;;;;;5027040;28;20368;-77
2021/12/30 07:21:57;;;;;;;;;;;10.60;99.90;;;;;;5041917;28;20398;-77
2021/12/30 07:24:23;;;;;;;;;;;10.60;99.90;;;;;;5026150;28;19921;-77
2021/12/30 07:26:49;;;;;;;;;;;10.60;99.90;;;;;;5043581;28;19917;-77
2021/12/30 07:29:15;;;;;;;;;;;10.70;99.90;;;;;;5044862;28;19920;-77
2021/12/30 07:31:41;;;;;;;;;;;10.70;99.90;;;;;;5047564;28;19914;-77
2021/12/30 07:34:06;;;;;;;;;;;10.60;99.90;;;;;;5029251;28;20394;-77
2021/12/30 07:36:32;;;;;;;;;;;10.70;99.90;;;;;;5010441;28;20371;-77
2021/12/30 07:38:57;;;;;;;;;;;10.70;99.90;;;;;;5045210;28;19924;-77
2021/12/30 07:41:23;;;;;;;;;;;10.70;99.90;;;;;;5040877;28;19976;-77
2021/12/30 07:43:49;;;;;;;;;;;10.70;99.90;;;;;;5023470;28;19931;-77
2021/12/30 07:46:14;;;;;;;;;;;10.60;99.90;;;;;;5044006;28;19908;-77
2021/12/30 07:48:40;;;;;;;;;;;10.60;99.90;;;;;;5031587;28;20015;-78
2021/12/30 07:51:05;;;;;;;;;;;10.60;99.90;;;;;;5044228;28;19920;-77
2021/12/30 07:53:31;;;;;;;;;;;10.60;99.90;;;;;;5022283;28;19921;-78
2021/12/30 07:55:57;;;;;;;;;;;10.60;99.90;;;;;;5021954;28;19917;-77
2021/12/30 07:58:23;;;;;;;;;;;10.60;99.90;;;;;;5024525;28;20706;-76
2021/12/30 08:00:48;;;;;;;;;;;10.60;99.90;;;;;;5023929;28;19914;-77
2021/12/30 08:03:14;;;;;;;;;;;10.60;99.90;;;;;;5023258;28;20340;-77
2021/12/30 08:05:40;;;;;;;;;;;10.60;99.90;;;;;;5022875;28;20390;-77
2021/12/30 08:08:05;;;;;;;;;;;10.60;99.90;;;;;;5021944;28;19913;-77
2021/12/30 08:10:31;;;;;;;;;;;10.70;99.90;;;;;;5020682;28;20435;-76
2021/12/30 08:12:56;;;;;;;;;;;10.70;99.90;;;;;;5023616;28;20395;-77
2021/12/30 08:15:22;;;;;;;;;;;10.80;99.90;;;;;;5020565;28;19917;-78
2021/12/30 08:17:49;;;;;;;;;;;10.80;99.90;;;;;;5023597;28;19918;-77
2021/12/30 08:20:15;;;;;;;;;;;10.80;99.90;;;;;;5022215;28;19916;-76
2021/12/30 08:22:40;;;;;;;;;;;10.70;99.90;;;;;;5024232;28;20411;-78
2021/12/30 08:25:07;;;;;;;;;;;10.70;99.90;;;;;;5023617;28;20491;-76
2021/12/30 08:27:33;;;;;;;;;;;10.80;99.90;;;;;;5023821;28;20059;-76
2021/12/30 08:29:58;;;;;;;;;;;10.80;99.90;;;;;;5020205;28;20004;-76
2021/12/30 08:32:24;;;;;;;;;;;10.80;99.90;;;;;;5020247;28;20019;-77
2021/12/30 08:34:49;;;;;;;;;;;10.80;99.90;;;;;;5025705;28;20436;-86
2021/12/30 08:37:16;;;;;;;;;;;10.90;99.90;;;;;;5022553;28;19931;-80
2021/12/30 08:39:41;;;;;;;;;;;10.90;99.90;;;;;;5020603;28;20048;-80
2021/12/30 08:42:17;;;;;;;;;;;11.00;99.90;;;;;;5022702;28;20103;-80
2021/12/30 08:44:43;;;;;;;;;;;11.00;99.90;;;;;;5023345;28;19921;-80
2021/12/30 08:47:09;;;;;;;;;;;11.10;99.90;;;;;;5026350;28;20269;-79
2021/12/30 08:49:34;;;;;;;;;;;11.10;99.90;;;;;;5025928;28;20392;-78
2021/12/30 08:52:00;;;;;;;;;;;11.10;99.90;;;;;;5024184;28;19929;-81
2021/12/30 08:54:25;;;;;;;;;;;11.20;99.90;;;;;;5034948;28;19932;-81
2021/12/30 08:56:51;;;;;;;;;;;11.30;99.90;;;;;;5045410;28;19913;-80
2021/12/30 08:59:16;;;;;;;;;;;11.30;99.90;;;;;;5047814;28;19920;-80
2021/12/30 09:01:42;;;;;;;;;;;11.30;99.90;;;;;;5023424;28;19919;-80
2021/12/30 09:04:07;;;;;;;;;;;11.30;99.90;;;;;;5029922;28;19999;-80
2021/12/30 09:06:33;;;;;;;;;;;11.30;99.90;;;;;;5044513;28;19952;-81
2021/12/30 09:08:59;;;;;;;;;;;11.30;99.90;;;;;;5013762;28;19967;-80
2021/12/30 09:11:24;;;;;;;;;;;11.30;99.90;;;;;;5041982;28;20431;-80
2021/12/30 09:13:50;;;;;;;;;;;11.30;99.90;;;;;;5038721;28;20032;-81
2021/12/30 09:16:15;;;;;;;;;;;11.30;99.90;;;;;;5043439;28;19920;-80
2021/12/30 09:18:42;;;;;;;;;;;11.30;99.90;;;;;;5044026;28;19924;-80
2021/12/30 09:21:08;;;;;;;;;;;11.20;99.90;;;;;;5047886;28;19917;-80
2021/12/30 09:23:33;;;;;;;;;;;11.30;99.90;;;;;;5047087;28;20299;-80
2021/12/30 09:25:59;;;;;;;;;;;11.30;99.90;;;;;;5029016;28;19927;-79
2021/12/30 09:28:24;;;;;;;;;;;11.40;99.90;;;;;;5029136;28;20010;-83
2021/12/30 09:30:50;;;;;;;;;;;11.40;99.90;;;;;;5026042;28;20035;-80
2021/12/30 09:33:16;;;;;;;;;;;11.40;99.90;;;;;;5029267;28;19922;-82
2021/12/30 09:35:43;;;;;;;;;;;11.50;99.90;;;;;;5023929;28;19931;-84
2021/12/30 09:38:08;;;;;;;;;;;11.50;99.90;;;;;;5027100;28;19975;-82
2021/12/30 09:40:34;;;;;;;;;;;11.60;99.90;;;;;;5025483;28;19916;-78
2021/12/30 09:43:04;;;;;;;;;;;11.50;99.90;;;;;;5060719;28;20370;-79
2021/12/30 09:45:32;;;;;;;;;;;11.50;99.90;;;;;;5063698;28;19921;-80
2021/12/30 09:47:59;;;;;;;;;;;11.60;99.90;;;;;;5030731;28;20015;-81
2021/12/30 09:50:26;;;;;;;;;;;11.70;99.90;;;;;;5023431;28;19917;-81
2021/12/30 09:52:52;;;;;;;;;;;11.80;99.90;;;;;;5020885;28;19922;-80
2021/12/30 09:55:18;;;;;;;;;;;11.80;99.90;;;;;;5021066;28;19917;-80
2021/12/30 09:57:45;;;;;;;;;;;11.90;99.90;;;;;;5027954;28;20007;-80
2021/12/30 10:00:12;;;;;;;;;;;12.00;99.90;;;;;;5028425;28;20380;-80
2021/12/30 10:02:42;;;;;;;;;;;12.00;99.90;;;;;;5016660;28;19913;-81
2021/12/30 10:05:09;;;;;;;;;;;12.10;99.90;;;;;;5024211;28;19964;-80
2021/12/30 10:07:39;;;;;;;;;;;12.20;99.90;;;;;;5039150;28;19967;-79
2021/12/30 10:10:24;;;;;;;;;;;12.20;99.90;;;;;;5049085;28;19912;-80
2021/12/30 10:12:49;;;;;;;;;;;12.20;99.90;;;;;;5019649;28;19919;-80
2021/12/30 10:15:15;;;;;;;;;;;12.20;99.90;;;;;;5023215;28;20382;-80
2021/12/30 10:17:40;;;;;;;;;;;12.10;99.90;;;;;;5021142;28;19920;-80
2021/12/30 10:20:22;;;;;;;;;;;12.10;99.90;;;;;;5021340;28;20462;-78
2021/12/30 10:22:48;;;;;;;;;;;12.20;99.90;;;;;;5019387;28;19920;-79
2021/12/30 10:25:37;;;;;;;;;;;12.20;99.90;;;;;;5021600;28;19913;-79
2021/12/30 10:28:21;;;;;;;;;;;12.30;99.90;;;;;;5024227;28;20368;-80
2021/12/30 10:30:47;;;;;;;;;;;12.40;99.90;;;;;;5021731;28;20794;-76
2021/12/30 10:33:33;;;;;;;;;;;12.30;99.90;;;;;;5020682;28;19921;-82
2021/12/30 10:35:59;;;;;;;;;;;12.30;99.90;;;;;;5022706;28;20036;-82
2021/12/30 10:38:27;;;;;;;;;;;12.20;99.90;;;;;;5029026;28;20721;-79
2021/12/30 10:40:53;;;;;;;;;;;12.20;99.90;;;;;;5028644;28;20019;-78
2021/12/30 10:43:31;;;;;;;;;;;12.30;99.90;;;;;;5033423;28;20338;-81
2021/12/30 10:46:07;;;;;;;;;;;12.30;99.90;;;;;;5031105;28;19913;-88
2021/12/30 10:48:34;;;;;;;;;;;12.20;99.90;;;;;;5031872;28;19916;-83
2021/12/30 10:51:32;;;;;;;;;;;12.20;99.90;;;;;;5027474;28;19917;-84
2021/12/30 10:53:58;;;;;;;;;;;12.10;99.90;;;;;;5012829;28;20387;-84
2021/12/30 10:56:25;;;;;;;;;;;12.20;99.90;;;;;;5050434;28;19913;-84
2021/12/30 10:58:53;;;;;;;;;;;12.40;99.90;;;;;;5035647;28;19924;-82
2021/12/30 11:01:19;;;;;;;;;;;12.40;99.90;;;;;;5047230;28;19901;-84
2021/12/30 11:04:00;;;;;;;;;;;12.30;99.90;;;;;;5056476;28;19905;-82
2021/12/30 11:06:26;;;;;;;;;;;12.20;99.90;;;;;;5047677;28;19979;-81
2021/12/30 11:09:10;;;;;;;;;;;12.30;99.90;;;;;;5029641;28;19975;-80
2021/12/30 11:11:36;;;;;;;;;;;12.40;99.90;;;;;;5020771;28;19913;-82
2021/12/30 11:14:04;;;;;;;;;;;12.50;99.90;;;;;;5024458;28;19913;-78
2021/12/30 11:16:29;;;;;;;;;;;12.40;99.90;;;;;;5020763;28;20391;-77
2021/12/30 11:18:56;;;;;;;;;;;12.40;99.90;;;;;;5044788;28;20004;-78
2021/12/30 11:21:38;;;;;;;;;;;12.30;99.90;;;;;;5027215;28;19913;-76
2021/12/30 11:24:04;;;;;;;;;;;12.30;99.90;;;;;;5025909;28;19925;-73
2021/12/30 11:26:30;;;;;;;;;;;12.30;99.90;;;;;;5039094;28;20313;-76
2021/12/30 11:28:56;;;;;;;;;;;12.30;99.90;;;;;;5026538;28;19919;-78
2021/12/30 11:31:23;;;;;;;;;;;12.40;99.90;;;;;;5030572;28;19917;-78
2021/12/30 11:33:48;;;;;;;;;;;12.60;99.90;;;;;;5027737;28;20007;-78
2021/12/30 11:36:16;;;;;;;;;;;12.80;99.90;;;;;;5025779;28;20087;-80
2021/12/30 11:38:42;;;;;;;;;;;12.70;99.90;;;;;;5024052;28;19934;-81
2021/12/30 11:41:08;;;;;;;;;;;12.70;99.90;;;;;;5055272;28;20007;-82
2021/12/30 11:43:46;;;;;;;;;;;12.80;99.90;;;;;;5027019;28;20007;-82
2021/12/30 11:46:30;;;;;;;;;;;12.70;99.90;;;;;;5025188;28;19916;-79
2021/12/30 11:48:59;;;;;;;;;;;12.80;99.90;;;;;;5024493;28;19909;-82
2021/12/30 11:51:39;;;;;;;;;;;13.10;99.90;;;;;;5024156;28;19913;-81
2021/12/30 11:54:23;;;;;;;;;;;13.00;99.90;;;;;;5034035;28;19948;-79
2021/12/30 11:57:09;;;;;;;;;;;13.10;99.90;;;;;;5043870;28;20376;-80
2021/12/30 11:59:39;;;;;;;;;;;13.20;99.90;;;;;;5044634;28;19920;-79
2021/12/30 12:02:24;;;;;;;;;;;13.00;99.90;;;;;;5043975;28;20003;-79
2021/12/30 12:04:49;;;;;;;;;;;13.30;99.90;;;;;;5026459;28;19920;-79
2021/12/30 12:07:15;;;;;;;;;;;13.10;99.90;;;;;;5042545;28;19917;-79
2021/12/30 12:09:42;;;;;;;;;;;13.00;99.90;;;;;;5024680;28;20335;-79
2021/12/30 12:12:09;;;;;;;;;;;13.10;99.90;;;;;;5041246;28;20365;-79
2021/12/30 12:14:41;;;;;;;;;;;13.10;99.90;;;;;;5042082;28;19917;-79
2021/12/30 12:17:11;;;;;;;;;;;13.00;99.90;;;;;;5046014;28;19983;-79
2021/12/30 12:19:45;;;;;;;;;;;12.90;99.90;;;;;;5024894;28;19916;-78
2021/12/30 12:22:17;;;;;;;;;;;12.80;99.90;;;;;;5042625;28;19927;-79
2021/12/30 12:24:43;;;;;;;;;;;12.80;99.90;;;;;;5026456;28;19919;-79
2021/12/30 12:27:29;;;;;;;;;;;12.70;99.90;;;;;;5045224;28;20004;-78
2021/12/30 12:29:57;;;;;;;;;;;12.80;99.90;;;;;;5041624;28;20851;-80
2021/12/30 12:32:28;;;;;;;;;;;12.80;99.90;;;;;;5043466;28;19928;-81
2021/12/30 12:34:54;;;;;;;;;;;12.80;99.90;;;;;;5044956;28;20496;-72
2021/12/30 12:37:40;;;;;;;;;;;12.90;99.90;;;;;;5045292;28;19917;-80
2021/12/30 12:40:08;;;;;;;;;;;12.90;99.90;;;;;;5046651;28;19924;-80
2021/12/30 12:43:00;;;;;;;;;;;12.70;99.90;;;;;;5027900;28;19923;-78
2021/12/30 12:45:31;;;;;;;;;;;12.70;99.90;;;;;;4997046;28;19939;-77
2021/12/30 12:48:15;;;;;;;;;;;12.60;99.90;;;;;;5030432;28;19913;-76
2021/12/30 12:50:42;;;;;;;;;;;12.60;99.90;;;;;;5043672;28;19920;-76
2021/12/30 12:53:28;;;;;;;;;;;12.60;99.90;;;;;;5045665;28;19919;-76
2021/12/30 12:55:55;;;;;;;;;;;12.70;99.90;;;;;;5022827;28;19924;-77
2021/12/30 12:58:22;;;;;;;;;;;12.80;99.90;;;;;;5045842;28;19908;-78
2021/12/30 13:00:48;;;;;;;;;;;12.80;99.90;;;;;;5023941;28;20422;-77
2021/12/30 13:03:15;;;;;;;;;;;12.60;99.90;;;;;;5042645;28;20431;-77
2021/12/30 13:05:53;;;;;;;;;;;12.60;99.90;;;;;;5045633;28;19925;-77
2021/12/30 13:08:19;;;;;;;;;;;12.60;99.90;;;;;;5041704;28;19954;-81
2021/12/30 13:10:44;;;;;;;;;;;12.60;99.90;;;;;;5039918;28;20413;-75
2021/12/30 13:13:10;;;;;;;;;;;12.60;99.90;;;;;;5023974;28;19916;-74
2021/12/30 13:15:39;;;;;;;;;;;12.70;99.90;;;;;;5021028;28;20035;-76
2021/12/30 13:18:15;;;;;;;;;;;12.80;99.90;;;;;;5043131;28;19927;-76
2021/12/30 13:20:41;;;;;;;;;;;12.80;99.90;;;;;;5040995;28;19913;-76
2021/12/30 13:23:07;;;;;;;;;;;12.80;99.90;;;;;;5053241;28;19917;-76
2021/12/30 13:25:32;;;;;;;;;;;13.10;99.90;;;;;;5040702;28;19923;-76
2021/12/30 13:28:02;;;;;;;;;;;13.00;99.90;;;;;;5024267;28;19958;-76
2021/12/30 13:30:28;;;;;;;;;;;12.80;99.90;;;;;;5045544;28;19973;-75
2021/12/30 13:32:54;;;;;;;;;;;12.70;99.90;;;;;;5024854;28;20372;-76
2021/12/30 13:35:22;;;;;;;;;;;12.70;99.90;;;;;;5041542;28;19913;-76
2021/12/30 13:37:52;;;;;;;;;;;12.60;99.90;;;;;;5045822;28;20406;-77
2021/12/30 13:40:18;;;;;;;;;;;12.70;99.90;;;;;;5042523;28;19912;-78
2021/12/30 13:42:49;;;;;;;;;;;12.80;99.90;;;;;;5025575;28;20452;-78
2021/12/30 13:45:15;;;;;;;;;;;12.80;99.90;;;;;;5046740;28;19993;-75
2021/12/30 13:47:42;;;;;;;;;;;12.70;99.90;;;;;;5038245;28;19982;-78
2021/12/30 13:50:18;;;;;;;;;;;12.70;99.90;;;;;;5022023;28;19909;-77
2021/12/30 13:52:45;;;;;;;;;;;12.70;99.90;;;;;;5043980;28;19920;-78
2021/12/30 13:55:13;;;;;;;;;;;12.80;99.90;;;;;;5041494;28;19909;-78
2021/12/30 13:57:39;;;;;;;;;;;12.70;99.90;;;;;;5022378;28;19920;-78
2021/12/30 14:00:06;;;;;;;;;;;12.80;99.90;;;;;;5038795;28;20392;-78
2021/12/30 14:02:32;;;;;;;;;;;12.80;99.90;;;;;;5036438;28;19916;-78
2021/12/30 14:05:09;;;;;;;;;;;12.70;99.90;;;;;;5045304;28;19917;-78
2021/12/30 14:07:37;;;;;;;;;;;12.70;99.90;;;;;;5024378;28;19932;-78
2021/12/30 14:10:03;;;;;;;;;;;12.70;99.90;;;;;;5040484;28;20037;-78
2021/12/30 14:12:29;;;;;;;;;;;12.60;99.90;;;;;;5023451;28;20367;-78
2021/12/30 14:14:55;;;;;;;;;;;12.60;99.90;;;;;;5023726;28;19913;-78
2021/12/30 14:17:20;;;;;;;;;;;12.50;99.90;;;;;;5041826;28;19909;-78